sim
Sign-in with your pilot id or email,
or register
Callsign
Passwort

Schedule Details

Flight Number: RYR4774 (4)
Departure: Milan Bergamo Il Caravaggio International Airport (LIME) at 18:00
Arrival: Thessaloniki International Airport (LGTS) at 20:05
Route: Ryanair Passenger Schedule. Enter filed route here before submitting Pirep.

Weather Information
Getting current METAR information for LIME 252150Z 02003KT 320V060 9999 SCT035 BKN070 13/11 Q1016 NOSIG
Getting current METAR information for LGTS 252150Z 00000KT CAVOK 15/12 Q1020 NOSIG

Schedule Frequency

Route Map